CA-0467 weather

CLOSED Ajax / Picov Downs
Ontario, Canada

Public forecast

Using degrees Celsius for public forecast. Weather courtesy of forecast.io.

METAR (pilot weather report)

Closest report is Toronto/Oshawa Executive Airport, 5.9 nm (11.0 km) ENE. Retrieved 2019/05/19 11:00 UTC (49 minutes ago):

CYOO 191100Z AUTO 00000KT 9SM CLR 11/06 A2986 RMK SLP115

TAF (pilot weather forecast)

Closest forecast is Toronto/Oshawa Executive Airport, 5.9 nm (11.0 km) ENE. Retrieved 2019/05/19 08:00 UTC (4 hours ago):

TAF CYOO 190745Z 1908/1920 05007KT P6SM SCT050 PROB30 1908/1912 BKN004 RMK FCST BASED ON AUTO OBS. NXT FCST BY 191400Z